createdAt,value
2022-10-22T00:01:00.499Z,82.98
2022-10-22T00:04:11.967Z,83.23
2022-10-22T00:07:15.552Z,83.42
2022-10-22T00:10:19.240Z,83.83
2022-10-22T00:13:23.136Z,84.07
2022-10-22T00:16:26.003Z,84.08
2022-10-22T00:19:28.975Z,84.07
2022-10-22T00:22:31.846Z,84.12
2022-10-22T00:25:36.762Z,84.08
2022-10-22T00:28:39.946Z,83.92
2022-10-22T00:31:46.966Z,84.05
2022-10-22T00:34:50.182Z,83.95
2022-10-22T00:37:53.357Z,84.06
2022-10-22T00:40:56.602Z,84.23
2022-10-22T00:44:02.318Z,84.29
2022-10-22T00:47:05.153Z,84.28
2022-10-22T00:50:12.892Z,83.86
2022-10-22T00:53:20.986Z,83.94
2022-10-22T00:56:24.916Z,83.76
2022-10-22T00:59:29.512Z,83.53
2022-10-22T01:02:32.587Z,83.44
2022-10-22T01:05:47.328Z,83.92
2022-10-22T01:09:12.406Z,83.90
2022-10-22T01:12:29.010Z,84.07
2022-10-22T01:15:59.795Z,84.42
2022-10-22T01:19:10.544Z,84.73
2022-10-22T01:22:34.396Z,84.90
2022-10-22T01:26:45.185Z,85.09
2022-10-22T01:30:00.978Z,84.96
2022-10-22T01:33:06.818Z,84.79
2022-10-22T01:36:11.600Z,84.85
2022-10-22T01:39:18.098Z,84.57
2022-10-22T01:42:21.667Z,84.58
2022-10-22T01:45:25.050Z,84.87
2022-10-22T01:48:54.320Z,84.95
2022-10-22T01:52:14.394Z,85.13
2022-10-22T01:55:39.458Z,84.93
2022-10-22T01:59:27.050Z,84.93
2022-10-22T02:02:40.260Z,84.98
2022-10-22T02:05:52.537Z,85.02
2022-10-22T02:08:56.754Z,85.23
2022-10-22T02:12:02.576Z,85.07
2022-10-22T02:15:06.572Z,85.13
2022-10-22T02:18:10.749Z,85.17
2022-10-22T02:21:14.871Z,85.05
2022-10-22T02:24:18.763Z,84.81
2022-10-22T02:27:34.119Z,84.53
2022-10-22T02:30:40.550Z,84.62
2022-10-22T02:33:47.680Z,84.59
2022-10-22T02:36:52.350Z,84.53
2022-10-22T02:39:56.594Z,84.44
2022-10-22T02:42:59.731Z,84.32
2022-10-22T02:46:02.601Z,84.48
2022-10-22T02:49:07.011Z,84.40
2022-10-22T02:52:09.880Z,84.27
2022-10-22T02:55:12.844Z,84.24
2022-10-22T02:58:15.714Z,84.10
2022-10-22T03:01:18.503Z,84.36
2022-10-22T03:04:21.556Z,84.22
2022-10-22T03:07:24.429Z,84.21
2022-10-22T03:10:27.400Z,84.15
2022-10-22T03:13:30.473Z,83.99
2022-10-22T03:16:33.245Z,83.85
2022-10-22T03:19:36.418Z,83.66
2022-10-22T03:22:42.623Z,83.51
2022-10-22T03:25:48.751Z,83.56
2022-10-22T03:28:51.781Z,83.46
2022-10-22T03:31:55.063Z,83.50
2022-10-22T03:34:58.136Z,83.45
2022-10-22T03:38:01.730Z,83.36
2022-10-22T03:41:04.899Z,83.42
2022-10-22T03:44:07.770Z,83.52
2022-10-22T03:47:10.742Z,83.50
2022-10-22T03:50:13.720Z,83.49
2022-10-22T03:53:16.789Z,83.47
2022-10-22T03:56:19.877Z,83.47
2022-10-22T03:59:22.732Z,83.59
2022-10-22T04:02:26.013Z,83.63
2022-10-22T04:05:28.881Z,83.59
2022-10-22T04:08:33.510Z,83.72
2022-10-22T04:11:37.283Z,83.72
2022-10-22T04:14:40.159Z,83.48
2022-10-22T04:17:46.503Z,83.63
2022-10-22T04:20:52.373Z,83.44
2022-10-22T04:23:55.414Z,83.36
2022-10-22T04:26:59.025Z,83.13
2022-10-22T04:30:02.891Z,82.97
2022-10-22T04:33:05.768Z,82.97
2022-10-22T04:36:18.466Z,82.80
2022-10-22T04:39:21.530Z,82.82
2022-10-22T04:42:24.400Z,82.76
2022-10-22T04:45:27.581Z,82.85
2022-10-22T04:48:30.449Z,82.88
2022-10-22T04:51:33.523Z,82.81
2022-10-22T04:54:36.494Z,82.67
2022-10-22T04:57:39.632Z,82.69
2022-10-22T05:00:42.814Z,82.76
2022-10-22T05:03:47.458Z,82.96
2022-10-22T05:06:50.326Z,82.97
2022-10-22T05:09:54.014Z,82.95
2022-10-22T05:12:56.990Z,82.77
2022-10-22T05:16:02.517Z,82.73
2022-10-22T05:19:06.213Z,82.66
2022-10-22T05:22:09.079Z,82.67
2022-10-22T05:25:12.564Z,82.93
2022-10-22T05:28:15.370Z,82.76
2022-10-22T05:31:19.325Z,82.78
2022-10-22T05:34:22.294Z,82.61
2022-10-22T05:37:25.372Z,82.73
2022-10-22T05:40:31.161Z,82.62
2022-10-22T05:43:35.411Z,82.64
2022-10-22T05:46:38.278Z,82.74
2022-10-22T05:49:41.425Z,82.80
2022-10-22T05:52:44.771Z,82.74
2022-10-22T05:55:47.707Z,82.79
2022-10-22T05:58:50.653Z,82.73
2022-10-22T06:01:53.796Z,82.72
2022-10-22T06:04:56.940Z,82.68
2022-10-22T06:08:01.030Z,82.66
2022-10-22T06:11:03.897Z,82.49
2022-10-22T06:14:07.076Z,82.39
2022-10-22T06:17:11.583Z,82.35
2022-10-22T06:20:14.892Z,82.21
2022-10-22T06:23:17.735Z,82.24
2022-10-22T06:26:20.609Z,82.12
2022-10-22T06:29:23.470Z,82.16
2022-10-22T06:32:26.565Z,82.09
2022-10-22T06:35:29.419Z,81.99
2022-10-22T06:38:32.287Z,81.89
2022-10-22T06:41:35.155Z,81.85
2022-10-22T06:44:38.795Z,81.91
2022-10-22T06:47:41.901Z,81.66
2022-10-22T06:50:44.868Z,81.52
2022-10-22T06:53:48.584Z,81.45
2022-10-22T06:56:51.654Z,81.46
2022-10-22T06:59:54.628Z,81.47
2022-10-22T07:02:59.296Z,81.48
2022-10-22T07:06:05.532Z,81.38
2022-10-22T07:09:08.617Z,81.42
2022-10-22T07:12:14.050Z,81.44
2022-10-22T07:15:16.957Z,81.19
2022-10-22T07:18:20.033Z,81.16
2022-10-22T07:21:26.483Z,81.25
2022-10-22T07:24:30.330Z,81.30
2022-10-22T07:27:33.245Z,81.40
2022-10-22T07:30:38.941Z,81.27
2022-10-22T07:33:43.285Z,81.31
2022-10-22T07:36:46.050Z,81.31
2022-10-22T07:39:49.534Z,81.24
2022-10-22T07:42:53.120Z,81.06
2022-10-22T07:45:56.405Z,81.10
2022-10-22T07:48:59.268Z,81.17
2022-10-22T07:52:03.987Z,81.08
2022-10-22T07:55:08.180Z,80.95
2022-10-22T07:58:11.050Z,80.93
2022-10-22T08:01:13.950Z,80.82
2022-10-22T08:04:16.896Z,80.83
2022-10-22T08:07:19.702Z,80.76
2022-10-22T08:10:23.042Z,80.60
2022-10-22T08:13:28.036Z,80.59
2022-10-22T08:16:31.138Z,80.69
2022-10-22T08:19:35.642Z,80.66
2022-10-22T08:22:38.514Z,80.60
2022-10-22T08:25:41.280Z,80.63
2022-10-22T08:28:44.266Z,80.55
2022-10-22T08:31:47.532Z,80.48
2022-10-22T08:34:52.582Z,80.42
2022-10-22T08:37:55.727Z,80.41
2022-10-22T08:41:12.623Z,80.40
2022-10-22T08:44:26.746Z,80.34
2022-10-22T08:48:02.770Z,80.36
2022-10-22T08:51:06.129Z,80.37
2022-10-22T08:54:37.058Z,80.36
2022-10-22T08:58:05.722Z,80.31
2022-10-22T09:01:19.303Z,80.74
2022-10-22T09:04:28.757Z,80.85
2022-10-22T09:07:31.624Z,80.88
2022-10-22T09:10:38.332Z,80.96
2022-10-22T09:13:43.731Z,80.90
2022-10-22T09:17:11.647Z,81.11
2022-10-22T09:20:36.622Z,81.16
2022-10-22T09:23:54.335Z,81.34
2022-10-22T09:26:58.223Z,81.37
2022-10-22T09:30:02.122Z,81.53
2022-10-22T09:33:08.058Z,81.62
2022-10-22T09:36:18.353Z,81.95
2022-10-22T09:39:32.020Z,82.02
2022-10-22T09:42:37.585Z,82.02
2022-10-22T09:45:59.250Z,82.27
2022-10-22T09:49:13.573Z,82.44
2022-10-22T09:52:28.636Z,82.40
2022-10-22T09:55:35.274Z,82.23
2022-10-22T09:58:46.733Z,82.12
2022-10-22T10:02:08.391Z,82.37
2022-10-22T10:05:29.709Z,82.82
2022-10-22T10:08:34.529Z,83.13
2022-10-22T10:12:03.463Z,83.29
2022-10-22T10:15:16.113Z,83.20
2022-10-22T10:18:29.720Z,83.34
2022-10-22T10:22:04.311Z,83.27
2022-10-22T10:25:40.567Z,83.27
2022-10-22T10:29:18.206Z,83.02
2022-10-22T10:32:55.592Z,83.21
2022-10-22T10:36:17.567Z,83.30
2022-10-22T10:39:29.952Z,83.41
2022-10-22T10:42:40.692Z,83.26
2022-10-22T10:46:10.956Z,83.34
2022-10-22T10:49:23.386Z,83.47
2022-10-22T10:52:48.565Z,83.51
2022-10-22T10:56:18.860Z,83.54
2022-10-22T10:59:45.162Z,83.55
2022-10-22T11:03:00.926Z,83.72
2022-10-22T11:06:10.972Z,83.84
2022-10-22T11:09:43.509Z,83.76
2022-10-22T11:12:51.832Z,83.75
2022-10-22T11:16:12.474Z,83.86
2022-10-22T11:19:50.153Z,83.60
2022-10-22T11:23:21.599Z,83.66
2022-10-22T11:26:45.919Z,83.62
2022-10-22T11:29:57.593Z,83.42
2022-10-22T11:33:04.147Z,83.54
2022-10-22T11:36:10.029Z,83.33
2022-10-22T11:39:34.638Z,83.47
2022-10-22T11:42:39.712Z,83.28
2022-10-22T11:45:43.470Z,83.27
2022-10-22T11:49:03.094Z,83.41
2022-10-22T11:52:26.759Z,83.41
2022-10-22T11:55:48.987Z,83.22
2022-10-22T11:58:54.997Z,83.15
2022-10-22T12:01:57.861Z,83.15
2022-10-22T12:05:23.785Z,83.17
2022-10-22T12:08:26.962Z,83.24
2022-10-22T12:11:45.806Z,83.15
2022-10-22T12:14:59.360Z,83.13
2022-10-22T12:18:06.296Z,83.26
2022-10-22T12:21:14.376Z,83.33
2022-10-22T12:24:21.185Z,83.27
2022-10-22T12:27:34.318Z,83.33
2022-10-22T12:30:37.295Z,83.40
2022-10-22T12:33:40.263Z,83.49
2022-10-22T12:36:43.968Z,83.38
2022-10-22T12:39:47.435Z,83.34
2022-10-22T12:42:55.008Z,83.69
2022-10-22T12:45:59.962Z,83.59
2022-10-22T12:49:08.215Z,83.52
2022-10-22T12:52:23.936Z,83.69
2022-10-22T12:55:27.472Z,83.54
2022-10-22T12:58:38.733Z,83.64
2022-10-22T13:01:43.646Z,83.70
2022-10-22T13:05:17.625Z,83.63
2022-10-22T13:08:29.456Z,83.73
2022-10-22T13:12:02.636Z,83.65
2022-10-22T13:15:39.766Z,83.52
2022-10-22T13:18:44.224Z,83.63
2022-10-22T13:21:49.133Z,83.80
2022-10-22T13:24:53.078Z,83.68
2022-10-22T13:28:05.208Z,84.02
2022-10-22T13:31:17.793Z,84.08
2022-10-22T13:34:24.255Z,84.18
2022-10-22T13:37:29.169Z,84.35
2022-10-22T13:40:32.243Z,84.32
2022-10-22T13:43:35.013Z,84.60
2022-10-22T13:46:43.059Z,84.55
2022-10-22T13:49:46.948Z,84.55
2022-10-22T13:52:55.805Z,84.76
2022-10-22T13:55:58.773Z,85.11
2022-10-22T13:59:01.748Z,85.14
2022-10-22T14:02:11.566Z,84.92
2022-10-22T14:05:18.102Z,85.01
2022-10-22T14:08:23.557Z,84.98
2022-10-22T14:11:27.673Z,85.15
2022-10-22T14:14:30.524Z,85.02
2022-10-22T14:17:33.361Z,85.14
2022-10-22T14:20:38.058Z,85.20
2022-10-22T14:23:42.611Z,85.07
2022-10-22T14:26:45.692Z,85.21
2022-10-22T14:29:48.556Z,85.24
2022-10-22T14:32:52.401Z,85.19
2022-10-22T14:35:55.323Z,85.32
2022-10-22T14:38:58.191Z,85.25
2022-10-22T14:42:01.061Z,85.34
2022-10-22T14:45:04.758Z,85.29
2022-10-22T14:48:08.625Z,85.19
2022-10-22T14:51:14.526Z,85.18
2022-10-22T14:54:18.593Z,85.15
2022-10-22T14:57:21.537Z,85.32
2022-10-22T15:00:24.779Z,85.23
2022-10-22T15:03:27.696Z,85.01
2022-10-22T15:06:30.582Z,85.20
2022-10-22T15:09:33.447Z,85.41
2022-10-22T15:12:36.398Z,85.48
2022-10-22T15:15:42.532Z,85.68
2022-10-22T15:18:45.522Z,86.04
2022-10-22T15:21:48.641Z,86.09
2022-10-22T15:24:53.823Z,86.33
2022-10-22T15:28:00.824Z,86.69
2022-10-22T15:31:14.489Z,86.78
2022-10-22T15:34:23.575Z,86.92
2022-10-22T15:37:26.567Z,86.99
2022-10-22T15:40:29.385Z,86.97
2022-10-22T15:43:32.953Z,86.96
2022-10-22T15:46:37.966Z,86.97
2022-10-22T15:49:42.087Z,87.12
2022-10-22T15:52:44.856Z,87.02
2022-10-22T15:55:50.606Z,87.00
2022-10-22T15:58:59.243Z,87.08
2022-10-22T16:02:02.553Z,87.11
2022-10-22T16:05:06.068Z,87.15
2022-10-22T16:08:08.921Z,87.24
2022-10-22T16:11:11.896Z,87.15
2022-10-22T16:14:17.297Z,87.15
2022-10-22T16:17:20.212Z,87.13
2022-10-22T16:20:23.269Z,87.33
2022-10-22T16:23:28.392Z,87.31
2022-10-22T16:26:31.783Z,87.37
2022-10-22T16:29:39.091Z,87.43
2022-10-22T16:32:42.252Z,87.56
2022-10-22T16:35:45.398Z,87.59
2022-10-22T16:38:49.289Z,87.77
2022-10-22T16:41:52.112Z,87.88
2022-10-22T16:44:54.942Z,87.80
2022-10-22T16:47:57.798Z,87.76
2022-10-22T16:51:07.523Z,87.73
2022-10-22T16:54:12.522Z,87.68
2022-10-22T16:57:15.616Z,87.74
2022-10-22T17:00:19.220Z,87.79
2022-10-22T17:03:24.535Z,87.70
2022-10-22T17:06:30.677Z,87.73
2022-10-22T17:09:33.548Z,87.66
2022-10-22T17:12:36.924Z,87.54
2022-10-22T17:15:40.718Z,87.50
2022-10-22T17:21:51.631Z,87.21
2022-10-22T17:25:16.548Z,87.02
2022-10-22T17:28:19.417Z,86.91
2022-10-22T17:31:27.302Z,86.83
2022-10-22T17:34:33.447Z,86.78
2022-10-22T17:37:37.244Z,86.84
2022-10-22T17:40:40.719Z,86.71
2022-10-22T17:46:52.092Z,86.61
2022-10-22T17:49:55.268Z,86.53
2022-10-22T17:52:58.442Z,86.46
2022-10-22T17:56:02.551Z,86.38
2022-10-22T17:59:05.514Z,86.36
2022-10-22T18:02:15.034Z,86.33
2022-10-22T18:05:40.930Z,86.40
2022-10-22T18:08:44.085Z,86.35
2022-10-22T18:11:52.626Z,86.40
2022-10-22T18:14:55.715Z,86.36
2022-10-22T18:17:58.670Z,86.35
2022-10-22T18:21:21.714Z,86.43
2022-10-22T18:24:24.791Z,86.56
2022-10-22T18:27:31.354Z,86.38
2022-10-22T18:30:35.141Z,86.36
2022-10-22T18:33:39.914Z,86.59
2022-10-22T18:36:42.953Z,86.49
2022-10-22T18:39:45.823Z,86.51
2022-10-22T18:42:48.711Z,86.50
2022-10-22T18:45:51.990Z,86.52
2022-10-22T18:48:55.968Z,86.49
2022-10-22T18:51:59.265Z,86.63
2022-10-22T18:55:02.649Z,86.57
2022-10-22T18:58:05.823Z,86.52
2022-10-22T19:01:24.553Z,86.43
2022-10-22T19:04:33.339Z,86.41
2022-10-22T19:07:39.400Z,86.42
2022-10-22T19:10:42.953Z,86.46
2022-10-22T19:13:46.019Z,86.38
2022-10-22T19:16:49.856Z,86.38
2022-10-22T19:19:52.723Z,86.27
2022-10-22T19:22:56.842Z,86.35
2022-10-22T19:26:11.211Z,86.24
2022-10-22T19:29:17.219Z,86.29
2022-10-22T19:32:20.333Z,86.27
2022-10-22T19:35:23.348Z,86.28
2022-10-22T19:38:29.900Z,86.15
2022-10-22T19:41:33.793Z,86.12
2022-10-22T19:44:36.663Z,85.93
2022-10-22T19:47:39.540Z,85.85
2022-10-22T19:50:42.405Z,85.76
2022-10-22T19:53:45.796Z,85.66
2022-10-22T19:56:49.865Z,85.58
2022-10-22T19:59:52.870Z,85.50
2022-10-22T20:02:55.728Z,85.53
2022-10-22T20:05:59.313Z,85.39
2022-10-22T20:09:02.125Z,85.41
2022-10-22T20:12:05.564Z,85.34
2022-10-22T20:15:09.305Z,85.25
2022-10-22T20:18:12.124Z,85.18
2022-10-22T20:21:17.137Z,85.11
2022-10-22T20:24:20.233Z,85.01
2022-10-22T20:27:23.081Z,85.01
2022-10-22T20:30:25.853Z,84.86
2022-10-22T20:33:29.072Z,84.84
2022-10-22T20:36:32.715Z,84.71
2022-10-22T20:39:36.199Z,84.71
2022-10-22T20:42:39.392Z,84.62
2022-10-22T20:45:42.451Z,84.60
2022-10-22T20:48:46.084Z,84.47
2022-10-22T20:51:49.120Z,84.35
2022-10-22T20:54:51.982Z,84.27
2022-10-22T20:57:55.570Z,84.18
2022-10-22T21:01:01.279Z,84.19
2022-10-22T21:04:05.094Z,84.12
2022-10-22T21:07:07.962Z,84.03
2022-10-22T21:10:10.939Z,83.98
2022-10-22T21:13:14.432Z,83.96
2022-10-22T21:16:19.765Z,83.83
2022-10-22T21:19:26.504Z,83.85
2022-10-22T21:22:29.586Z,83.76
2022-10-22T21:25:32.460Z,83.76
2022-10-22T21:28:37.061Z,83.67
2022-10-22T21:31:40.646Z,83.67
2022-10-22T21:34:43.720Z,83.60
2022-10-22T21:37:46.695Z,83.50
2022-10-22T21:40:51.000Z,83.40
2022-10-22T21:43:53.968Z,83.44
2022-10-22T21:46:56.835Z,83.35
2022-10-22T21:49:59.910Z,83.35
2022-10-22T21:53:02.986Z,83.31
2022-10-22T21:56:06.839Z,83.20
2022-10-22T21:59:09.746Z,83.23
2022-10-22T22:02:12.650Z,83.20
2022-10-22T22:05:17.741Z,83.14
2022-10-22T22:08:20.608Z,83.14
2022-10-22T22:11:26.628Z,83.10
2022-10-22T22:14:29.528Z,82.91
2022-10-22T22:17:32.389Z,83.08
2022-10-22T22:20:36.999Z,83.02
2022-10-22T22:23:42.941Z,83.01
2022-10-22T22:26:45.710Z,83.04
2022-10-22T22:29:48.781Z,83.05
2022-10-22T22:32:51.895Z,82.97
2022-10-22T22:35:59.210Z,82.95
2022-10-22T22:39:03.784Z,83.02
2022-10-22T22:42:06.709Z,82.86
2022-10-22T22:45:09.997Z,82.95
2022-10-22T22:48:12.759Z,82.94
2022-10-22T22:51:16.340Z,82.93
2022-10-22T22:54:21.181Z,82.85
2022-10-22T22:57:24.233Z,82.67
2022-10-22T23:00:27.050Z,82.52
2022-10-22T23:03:30.180Z,82.49
2022-10-22T23:06:36.522Z,82.66
2022-10-22T23:09:39.496Z,82.61
2022-10-22T23:12:42.738Z,82.69
2022-10-22T23:15:45.746Z,82.56
2022-10-22T23:18:49.128Z,82.50
2022-10-22T23:21:54.557Z,82.52
2022-10-22T23:24:58.040Z,82.53
2022-10-22T23:28:01.015Z,82.52
2022-10-22T23:31:05.494Z,82.44
2022-10-22T23:34:11.522Z,82.48
2022-10-22T23:37:14.388Z,82.44
2022-10-22T23:40:17.309Z,82.44
2022-10-22T23:43:20.990Z,82.53
2022-10-22T23:46:23.859Z,82.41
2022-10-22T23:49:26.730Z,82.39
2022-10-22T23:52:29.703Z,82.46
2022-10-22T23:55:32.676Z,82.50
2022-10-22T23:58:39.945Z,82.51
